Time;durP1;ratioP1;P1;durP2;ratioP2;P2;SDS_P1;SDS_P2;PMS_P1;PMS_P2;Temp;Humidity;BMP_temperature;BMP_pressure;BME280_temperature;BME280_humidity;BME280_pressure;Samples;Min_cycle;Max_cycle;Signal;HPM_P1;HPM_P2
2022/08/04 00:21:35;;;;;;;14.10;10.15;;;;;;;;;;4884620;29;20051;-79
2022/08/04 00:24:02;;;;;;;11.63;10.50;;;;;;;;;;4878755;29;20185;-79
2022/08/04 00:26:28;;;;;;;12.90;10.73;;;;;;;;;;4880181;29;20052;-77
2022/08/04 00:28:54;;;;;;;26.17;11.57;;;;;;;;;;4879924;29;20049;-78
2022/08/04 00:31:20;;;;;;;14.73;10.60;;;;;;;;;;4863353;29;20055;-79
2022/08/04 00:33:46;;;;;;;14.23;10.48;;;;;;;;;;4879697;29;20053;-79
2022/08/04 00:36:11;;;;;;;12.05;10.93;;;;;;;;;;4863358;29;20105;-80
2022/08/04 00:38:41;;;;;;;11.32;10.35;;;;;;;;;;4880152;29;20518;-78
2022/08/04 00:41:07;;;;;;;17.42;10.73;;;;;;;;;;4880161;29;20049;-80
2022/08/04 00:43:34;;;;;;;16.20;11.32;;;;;;;;;;4863417;29;20682;-79
2022/08/04 00:46:12;;;;;;;12.70;11.52;;;;;;;;;;4879870;29;20045;-79
2022/08/04 00:48:38;;;;;;;18.52;11.32;;;;;;;;;;4880079;29;20069;-79
2022/08/04 00:51:13;;;;;;;18.05;11.85;;;;;;;;;;4863179;29;20503;-79
2022/08/04 00:53:43;;;;;;;21.63;13.20;;;;;;;;;;4879896;29;20053;-80
2022/08/04 00:56:24;;;;;;;12.10;10.85;;;;;;;;;;4879469;29;20079;-80
2022/08/04 00:59:08;;;;;;;15.02;10.80;;;;;;;;;;4879473;29;20045;-79
2022/08/04 01:01:37;;;;;;;13.75;10.15;;;;;;;;;;4862449;29;20076;-79
2022/08/04 01:04:06;;;;;;;11.68;10.68;;;;;;;;;;4879094;29;20053;-79
2022/08/04 01:06:47;;;;;;;11.20;10.10;;;;;;;;;;4879010;29;20067;-79
2022/08/04 01:09:19;;;;;;;11.35;10.00;;;;;;;;;;4862383;29;20048;-79
2022/08/04 01:11:44;;;;;;;10.80;9.70;;;;;;;;;;4879337;29;20058;-79
2022/08/04 01:14:28;;;;;;;12.35;10.88;;;;;;;;;;4862715;29;20105;-78
2022/08/04 01:16:57;;;;;;;15.68;11.30;;;;;;;;;;4879528;29;20049;-79
2022/08/04 01:19:41;;;;;;;12.05;10.80;;;;;;;;;;4878886;29;20080;-80
2022/08/04 01:22:13;;;;;;;16.98;12.82;;;;;;;;;;4862136;29;20060;-80
2022/08/04 01:24:45;;;;;;;12.25;11.13;;;;;;;;;;4878489;29;20057;-77
2022/08/04 01:27:17;;;;;;;12.38;11.07;;;;;;;;;;4878509;29;20045;-77
2022/08/04 01:29:46;;;;;;;10.65;9.50;;;;;;;;;;4861771;29;20144;-77
2022/08/04 01:32:38;;;;;;;10.57;9.45;;;;;;;;;;4878436;29;20072;-78
2022/08/04 01:35:07;;;;;;;10.85;9.50;;;;;;;;;;4877292;29;20136;-77
2022/08/04 01:37:52;;;;;;;14.05;8.88;;;;;;;;;;4846255;29;20586;-76
2022/08/04 01:40:19;;;;;;;9.70;8.70;;;;;;;;;;4876873;29;20072;-78
2022/08/04 01:42:44;;;;;;;15.63;9.70;;;;;;;;;;4861578;29;20048;-78
2022/08/04 01:45:10;;;;;;;8.63;7.93;;;;;;;;;;4876924;29;20056;-78
2022/08/04 01:47:37;;;;;;;9.98;9.07;;;;;;;;;;4878163;29;20076;-77
2022/08/04 01:50:07;;;;;;;11.70;10.68;;;;;;;;;;4876842;29;20279;-77
2022/08/04 01:52:33;;;;;;;10.33;8.17;;;;;;;;;;4878020;29;20053;-77
2022/08/04 01:55:00;;;;;;;10.23;8.93;;;;;;;;;;4878085;29;20277;-77
2022/08/04 01:57:26;;;;;;;9.07;8.30;;;;;;;;;;4877987;29;20052;-78
2022/08/04 01:59:51;;;;;;;9.10;8.20;;;;;;;;;;4877764;29;20655;-77
2022/08/04 02:02:21;;;;;;;10.45;8.02;;;;;;;;;;4877800;29;20127;-78
2022/08/04 02:04:47;;;;;;;9.55;8.38;;;;;;;;;;4877738;29;20166;-79
2022/08/04 02:07:24;;;;;;;9.82;8.90;;;;;;;;;;4877690;29;20136;-77
2022/08/04 02:09:50;;;;;;;10.68;9.80;;;;;;;;;;4877925;29;20049;-78
2022/08/04 02:12:24;;;;;;;15.32;10.05;;;;;;;;;;4879380;29;20045;-78
2022/08/04 02:15:13;;;;;;;11.02;9.88;;;;;;;;;;4870757;29;20045;-77
2022/08/04 02:17:42;;;;;;;11.65;10.55;;;;;;;;;;4878234;29;20045;-77
2022/08/04 02:20:11;;;;;;;14.30;11.68;;;;;;;;;;4877625;29;20439;-79
2022/08/04 02:22:43;;;;;;;14.07;12.35;;;;;;;;;;4877389;29;20466;-78
2022/08/04 02:25:10;;;;;;;17.08;11.77;;;;;;;;;;4860897;29;20044;-78
2022/08/04 02:27:44;;;;;;;13.52;11.95;;;;;;;;;;4877452;29;20041;-78
2022/08/04 02:30:10;;;;;;;14.77;12.05;;;;;;;;;;4877332;29;20198;-76
2022/08/04 02:32:38;;;;;;;13.10;12.00;;;;;;;;;;4877176;29;20123;-78
2022/08/04 02:35:04;;;;;;;13.55;12.18;;;;;;;;;;4877320;29;20075;-78
2022/08/04 02:37:30;;;;;;;13.20;12.00;;;;;;;;;;4859730;29;20514;-78
2022/08/04 02:39:57;;;;;;;23.77;12.48;;;;;;;;;;4860556;29;20070;-78
2022/08/04 02:42:23;;;;;;;13.35;12.13;;;;;;;;;;4877093;29;20053;-77
2022/08/04 02:44:49;;;;;;;16.50;12.00;;;;;;;;;;4860358;29;20100;-78
2022/08/04 02:47:19;;;;;;;14.10;12.70;;;;;;;;;;4876936;29;20055;-76
2022/08/04 02:49:45;;;;;;;13.95;12.70;;;;;;;;;;4877075;29;20053;-76
2022/08/04 02:52:11;;;;;;;16.60;13.18;;;;;;;;;;4877138;29;20049;-77
2022/08/04 02:54:41;;;;;;;16.98;14.10;;;;;;;;;;4860179;29;20045;-77
2022/08/04 02:57:08;;;;;;;17.00;12.80;;;;;;;;;;4877306;29;20041;-78
2022/08/04 02:59:42;;;;;;;15.13;13.13;;;;;;;;;;4876643;29;20539;-77
2022/08/04 03:02:08;;;;;;;14.60;13.02;;;;;;;;;;4879115;29;20060;-77
2022/08/04 03:04:37;;;;;;;14.40;11.77;;;;;;;;;;4883691;29;20057;-77
2022/08/04 03:07:09;;;;;;;15.23;11.63;;;;;;;;;;4891046;29;20101;-77
2022/08/04 03:09:54;;;;;;;12.50;11.27;;;;;;;;;;4883743;29;20064;-77
2022/08/04 03:12:31;;;;;;;13.05;11.35;;;;;;;;;;4876859;29;20526;-78
2022/08/04 03:15:09;;;;;;;16.35;11.70;;;;;;;;;;4860133;29;20101;-77
2022/08/04 03:17:53;;;;;;;13.00;10.30;;;;;;;;;;4876532;29;20537;-75
2022/08/04 03:20:19;;;;;;;14.63;10.57;;;;;;;;;;4859656;29;20068;-78
2022/08/04 03:23:04;;;;;;;16.10;10.60;;;;;;;;;;4859596;29;20160;-77
2022/08/04 03:25:33;;;;;;;17.80;11.02;;;;;;;;;;4876181;29;20081;-77
2022/08/04 03:28:02;;;;;;;18.45;11.10;;;;;;;;;;4876376;29;20131;-79
2022/08/04 03:30:31;;;;;;;19.65;10.60;;;;;;;;;;4876069;29;20134;-78
2022/08/04 03:33:05;;;;;;;17.80;10.50;;;;;;;;;;4876179;29;20053;-77
2022/08/04 03:35:40;;;;;;;12.27;11.05;;;;;;;;;;4876060;29;20544;-76
2022/08/04 03:38:08;;;;;;;17.23;10.50;;;;;;;;;;4876319;29;20112;-77
2022/08/04 03:40:44;;;;;;;14.10;10.43;;;;;;;;;;4859255;29;20549;-77
2022/08/04 03:43:16;;;;;;;18.42;10.27;;;;;;;;;;4876275;29;20051;-78
2022/08/04 03:46:00;;;;;;;20.90;11.18;;;;;;;;;;4859423;29;20164;-77
2022/08/04 03:48:44;;;;;;;19.60;10.98;;;;;;;;;;4875224;29;20053;-77
2022/08/04 03:54:29;;;;;;;15.07;10.05;;;;;;;;;;4876299;29;20041;-78
2022/08/04 03:57:13;;;;;;;11.13;8.60;;;;;;;;;;4876040;29;20055;-77
2022/08/04 04:00:02;;;;;;;16.45;9.65;;;;;;;;;;4859311;29;20052;-77
2022/08/04 04:02:40;;;;;;;14.60;8.70;;;;;;;;;;4874680;29;20514;-79
2022/08/04 04:05:26;;;;;;;13.18;8.70;;;;;;;;;;4859743;29;20063;-77
2022/08/04 04:07:52;;;;;;;14.90;8.55;;;;;;;;;;4878758;29;20037;-77
2022/08/04 04:10:44;;;;;;;9.27;8.07;;;;;;;;;;4875749;29;20067;-77
2022/08/04 04:13:33;;;;;;;9.23;8.30;;;;;;;;;;4875077;29;20049;-77
2022/08/04 04:16:28;;;;;;;9.07;8.02;;;;;;;;;;4874895;29;20045;-78
2022/08/04 04:18:59;;;;;;;12.55;8.30;;;;;;;;;;4871372;29;20468;-77
2022/08/04 04:21:25;;;;;;;11.25;8.45;;;;;;;;;;4874200;29;20537;-77
2022/08/04 04:24:09;;;;;;;17.60;8.77;;;;;;;;;;4875661;29;20053;-78
2022/08/04 04:27:04;;;;;;;11.57;8.85;;;;;;;;;;4875425;29;20056;-78
2022/08/04 04:29:30;;;;;;;8.73;7.63;;;;;;;;;;4863365;29;20117;-78
2022/08/04 04:32:29;;;;;;;9.25;7.55;;;;;;;;;;4873138;29;20052;-77
2022/08/04 04:35:13;;;;;;;10.57;7.28;;;;;;;;;;4809927;29;20058;-76
2022/08/04 04:37:47;;;;;;;11.20;7.07;;;;;;;;;;4857002;29;20122;-78
2022/08/04 04:40:13;;;;;;;7.38;6.68;;;;;;;;;;4855946;29;20057;-79
2022/08/04 04:42:49;;;;;;;10.63;7.20;;;;;;;;;;4856673;29;20538;-80
2022/08/04 04:45:33;;;;;;;11.35;6.57;;;;;;;;;;4855861;29;20050;-76
2022/08/04 04:47:59;;;;;;;9.40;6.55;;;;;;;;;;4857040;29;20045;-77
2022/08/04 04:50:24;;;;;;;7.78;5.57;;;;;;;;;;4856601;29;20140;-77
2022/08/04 04:52:54;;;;;;;7.57;6.18;;;;;;;;;;4857074;29;20057;-76
2022/08/04 04:55:20;;;;;;;8.85;5.85;;;;;;;;;;4855578;29;20140;-81
2022/08/04 04:57:47;;;;;;;9.35;5.18;;;;;;;;;;4856768;29;20053;-78
2022/08/04 05:00:13;;;;;;;6.50;5.22;;;;;;;;;;4857886;29;20053;-77
2022/08/04 05:02:58;;;;;;;5.28;4.85;;;;;;;;;;4860026;29;20059;-77
2022/08/04 05:05:37;;;;;;;7.03;5.28;;;;;;;;;;4858993;29;20418;-78
2022/08/04 05:08:19;;;;;;;6.97;5.10;;;;;;;;;;4860492;29;20202;-77
2022/08/04 05:10:44;;;;;;;8.63;5.35;;;;;;;;;;4859747;29;20148;-77
2022/08/04 05:13:13;;;;;;;10.20;4.80;;;;;;;;;;4843731;29;20140;-78
2022/08/04 05:15:41;;;;;;;5.88;5.30;;;;;;;;;;4859629;29;20045;-78
2022/08/04 05:18:07;;;;;;;7.55;5.10;;;;;;;;;;4858875;29;20065;-78
2022/08/04 05:20:43;;;;;;;10.13;5.70;;;;;;;;;;4859759;29;20061;-78
2022/08/04 05:23:16;;;;;;;6.40;5.95;;;;;;;;;;4858627;29;20053;-77
2022/08/04 05:25:43;;;;;;;8.32;5.05;;;;;;;;;;4843026;29;20091;-77
2022/08/04 05:28:14;;;;;;;8.48;5.82;;;;;;;;;;4858877;29;20065;-76
2022/08/04 05:30:48;;;;;;;5.70;5.00;;;;;;;;;;4858022;29;20057;-77
2022/08/04 05:33:19;;;;;;;6.47;5.00;;;;;;;;;;4858458;29;20046;-79
2022/08/04 05:35:45;;;;;;;5.10;4.68;;;;;;;;;;4857946;29;20105;-77
2022/08/04 05:38:11;;;;;;;7.07;4.35;;;;;;;;;;4858604;29;20136;-77
2022/08/04 05:40:40;;;;;;;4.97;4.57;;;;;;;;;;4857997;29;20125;-78
2022/08/04 05:43:06;;;;;;;6.13;5.00;;;;;;;;;;4859509;29;20045;-77
2022/08/04 05:45:33;;;;;;;6.07;4.70;;;;;;;;;;4859247;29;20147;-77
2022/08/04 05:47:59;;;;;;;4.63;4.22;;;;;;;;;;4858112;29;20090;-77
2022/08/04 05:50:24;;;;;;;5.90;4.35;;;;;;;;;;4857891;29;20101;-77
2022/08/04 05:52:50;;;;;;;6.88;4.20;;;;;;;;;;4858444;29;20435;-78
2022/08/04 05:55:16;;;;;;;5.32;4.50;;;;;;;;;;4859442;29;20603;-77
2022/08/04 05:57:43;;;;;;;6.03;4.40;;;;;;;;;;4858861;29;20061;-79
2022/08/04 06:00:09;;;;;;;5.78;4.60;;;;;;;;;;4847341;29;20080;-77
2022/08/04 06:02:35;;;;;;;5.75;4.70;;;;;;;;;;4859141;29;20101;-75
2022/08/04 06:05:01;;;;;;;8.30;4.80;;;;;;;;;;4859226;29;20045;-78
2022/08/04 06:07:27;;;;;;;5.60;4.35;;;;;;;;;;4859189;29;20221;-78
2022/08/04 06:09:53;;;;;;;10.05;4.53;;;;;;;;;;4859110;29;20053;-78
2022/08/04 06:12:23;;;;;;;5.20;4.38;;;;;;;;;;4858230;29;20125;-79
2022/08/04 06:14:51;;;;;;;4.47;4.07;;;;;;;;;;4857670;29;20049;-76
2022/08/04 06:17:22;;;;;;;3.90;3.50;;;;;;;;;;4842466;29;20049;-79
2022/08/04 06:19:48;;;;;;;3.90;3.60;;;;;;;;;;4857691;29;20140;-76
2022/08/04 06:22:13;;;;;;;5.88;4.00;;;;;;;;;;4858623;29;20149;-77
2022/08/04 06:24:39;;;;;;;7.50;4.00;;;;;;;;;;4858716;29;20075;-76
2022/08/04 06:27:05;;;;;;;3.67;3.38;;;;;;;;;;4858915;29;20072;-78
2022/08/04 06:29:40;;;;;;;6.30;3.70;;;;;;;;;;4858803;29;20053;-77
2022/08/04 06:35:04;;;;;;;4.28;3.95;;;;;;;;;;4847131;29;20048;-77
2022/08/04 06:37:31;;;;;;;3.75;3.45;;;;;;;;;;4858594;29;20049;-79
2022/08/04 06:39:57;;;;;;;3.83;3.25;;;;;;;;;;4857241;29;20101;-78
2022/08/04 06:42:23;;;;;;;3.40;3.10;;;;;;;;;;4858821;29;20049;-78
2022/08/04 06:44:51;;;;;;;6.82;3.45;;;;;;;;;;4857258;29;20400;-77
2022/08/04 06:47:18;;;;;;;3.70;3.28;;;;;;;;;;4857316;29;20064;-77
2022/08/04 06:49:47;;;;;;;3.47;3.20;;;;;;;;;;4858398;29;20053;-77
2022/08/04 06:52:16;;;;;;;;;;;;;;;;;;4857622;29;20466;-76
2022/08/04 06:54:45;;;;;;;5.25;3.17;;;;;;;;;;4858241;29;19965;-78
2022/08/04 06:57:11;;;;;;;;;;;;;;;;;;4842216;29;20078;-77
2022/08/04 06:59:37;;;;;;;4.00;2.90;;;;;;;;;;4858047;29;19916;-77
2022/08/04 07:02:03;;;;;;;3.25;3.05;;;;;;;;;;4858355;29;20049;-78
2022/08/04 07:04:29;;;;;;;3.10;2.90;;;;;;;;;;4858097;29;20078;-78
2022/08/04 07:06:54;;;;;;;5.22;3.28;;;;;;;;;;4841575;29;20056;-78
2022/08/04 07:09:20;;;;;;;5.30;3.55;;;;;;;;;;4841702;29;20143;-76
2022/08/04 07:11:46;;;;;;;5.30;3.40;;;;;;;;;;4857626;29;20068;-77
2022/08/04 07:14:12;;;;;;;6.40;3.03;;;;;;;;;;4826303;29;20477;-78
2022/08/04 07:16:38;;;;;;;3.58;3.30;;;;;;;;;;4841238;29;20132;-79
2022/08/04 07:19:04;;;;;;;3.55;3.10;;;;;;;;;;4856777;29;20108;-78
2022/08/04 07:21:30;;;;;;;3.33;3.05;;;;;;;;;;4857510;29;20041;-77
2022/08/04 07:23:56;;;;;;;4.00;3.60;;;;;;;;;;4857559;29;20512;-79
2022/08/04 07:26:26;;;;;;;5.70;3.45;;;;;;;;;;4857809;29;20511;-78
2022/08/04 07:28:51;;;;;;;2.85;2.75;;;;;;;;;;4857620;29;20068;-78
2022/08/04 07:31:17;;;;;;;3.50;3.10;;;;;;;;;;4856530;29;20480;-78
2022/08/04 07:33:44;;;;;;;8.80;3.13;;;;;;;;;;4856426;29;20037;-77
2022/08/04 07:36:09;;;;;;;3.58;3.20;;;;;;;;;;4856464;29;20159;-78
2022/08/04 07:38:35;;;;;;;3.70;3.40;;;;;;;;;;4856324;29;20121;-77
2022/08/04 07:41:04;;;;;;;3.53;3.22;;;;;;;;;;4856467;29;20053;-77
2022/08/04 07:43:30;;;;;;;7.13;3.10;;;;;;;;;;4857643;29;20133;-78
2022/08/04 07:45:56;;;;;;;3.63;3.00;;;;;;;;;;4857556;29;20064;-77
2022/08/04 07:48:23;;;;;;;4.07;3.17;;;;;;;;;;4841162;29;20057;-79
2022/08/04 07:50:49;;;;;;;4.72;3.10;;;;;;;;;;4857998;29;20054;-79
2022/08/04 07:53:16;;;;;;;3.20;3.00;;;;;;;;;;4859710;29;20132;-78
2022/08/04 07:55:43;;;;;;;3.53;3.22;;;;;;;;;;4857498;29;20038;-78
2022/08/04 07:58:09;;;;;;;5.05;3.00;;;;;;;;;;4857738;29;20041;-78
2022/08/04 08:00:35;;;;;;;3.50;3.20;;;;;;;;;;4840913;29;20049;-79
2022/08/04 08:03:01;;;;;;;4.22;3.30;;;;;;;;;;4841067;29;20050;-77
2022/08/04 08:05:27;;;;;;;3.58;3.38;;;;;;;;;;4856302;29;20078;-79
2022/08/04 08:07:53;;;;;;;9.43;3.53;;;;;;;;;;4855948;29;20042;-78
2022/08/04 08:10:19;;;;;;;3.65;3.35;;;;;;;;;;4856068;29;20068;-78
2022/08/04 08:12:45;;;;;;;4.10;3.28;;;;;;;;;;4857163;29;20510;-77
2022/08/04 08:15:11;;;;;;;5.35;3.30;;;;;;;;;;4856058;29;20587;-78
2022/08/04 08:17:37;;;;;;;3.78;3.40;;;;;;;;;;4857468;29;20045;-77
2022/08/04 08:20:04;;;;;;;3.90;3.70;;;;;;;;;;4841028;29;20056;-78
2022/08/04 08:22:30;;;;;;;4.05;3.60;;;;;;;;;;4855660;29;20054;-77
2022/08/04 08:24:56;;;;;;;4.03;3.72;;;;;;;;;;4855710;29;20057;-77
2022/08/04 08:27:22;;;;;;;4.13;3.72;;;;;;;;;;4857159;29;20503;-78
2022/08/04 08:29:48;;;;;;;3.97;3.67;;;;;;;;;;4857012;29;20503;-78
2022/08/04 08:32:14;;;;;;;3.90;3.67;;;;;;;;;;4857100;29;20544;-78
2022/08/04 08:34:40;;;;;;;4.03;3.72;;;;;;;;;;4856086;29;20522;-79
2022/08/04 08:37:18;;;;;;;4.38;3.58;;;;;;;;;;4844061;29;20045;-78
2022/08/04 08:39:50;;;;;;;3.67;3.47;;;;;;;;;;4860699;29;20529;-78
2022/08/04 08:42:21;;;;;;;3.97;3.55;;;;;;;;;;4844254;29;20058;-78
2022/08/04 08:44:59;;;;;;;4.28;3.97;;;;;;;;;;4859426;29;20046;-78
2022/08/04 08:47:44;;;;;;;5.13;4.63;;;;;;;;;;4860684;29;20140;-79
2022/08/04 08:50:16;;;;;;;4.30;4.00;;;;;;;;;;4860550;29;20526;-77
2022/08/04 08:53:01;;;;;;;4.47;4.18;;;;;;;;;;4859057;29;20053;-78
2022/08/04 08:55:36;;;;;;;4.82;4.32;;;;;;;;;;4860498;29;20045;-78
2022/08/04 08:58:05;;;;;;;5.57;4.28;;;;;;;;;;4860365;29;20145;-78
2022/08/04 09:00:52;;;;;;;6.28;4.35;;;;;;;;;;4860460;29;20042;-78
2022/08/04 09:03:21;;;;;;;5.30;4.90;;;;;;;;;;4859283;29;20514;-76
2022/08/04 09:05:50;;;;;;;5.38;4.88;;;;;;;;;;4859934;29;20430;-77
2022/08/04 09:08:29;;;;;;;6.05;5.30;;;;;;;;;;4859023;29;20050;-78
2022/08/04 09:10:58;;;;;;;4.70;4.25;;;;;;;;;;4859692;29;20060;-78
2022/08/04 09:13:44;;;;;;;5.32;4.45;;;;;;;;;;4860158;29;20053;-78
2022/08/04 09:16:13;;;;;;;7.20;5.03;;;;;;;;;;4859992;29;20529;-77
2022/08/04 09:18:59;;;;;;;5.70;5.20;;;;;;;;;;4859897;29;20053;-78
2022/08/04 09:21:43;;;;;;;5.25;4.85;;;;;;;;;;4858658;29;20045;-79
2022/08/04 09:24:15;;;;;;;6.72;5.47;;;;;;;;;;4860295;29;20066;-77
2022/08/04 09:26:53;;;;;;;6.43;5.50;;;;;;;;;;4843549;29;20427;-77
2022/08/04 09:29:20;;;;;;;7.57;5.70;;;;;;;;;;4860356;29;20060;-79
2022/08/04 09:31:54;;;;;;;5.78;5.28;;;;;;;;;;4859146;29;20057;-79
2022/08/04 09:34:43;;;;;;;15.65;5.22;;;;;;;;;;4860131;29;20435;-78
2022/08/04 09:37:12;;;;;;;5.70;5.30;;;;;;;;;;4840867;29;20526;-79
2022/08/04 09:39:56;;;;;;;5.43;5.13;;;;;;;;;;4871617;29;20605;-79
2022/08/04 09:42:41;;;;;;;6.13;5.60;;;;;;;;;;4860381;29;20081;-79
2022/08/04 09:45:25;;;;;;;6.50;5.38;;;;;;;;;;4865327;29;20042;-80
2022/08/04 09:47:51;;;;;;;8.65;5.50;;;;;;;;;;4843175;29;20053;-78
2022/08/04 09:50:34;;;;;;;6.05;5.43;;;;;;;;;;4859590;29;20062;-79
2022/08/04 09:53:19;;;;;;;8.85;6.07;;;;;;;;;;4859271;29;20053;-79
2022/08/04 09:55:47;;;;;;;6.00;5.50;;;;;;;;;;4859276;29;20049;-79
2022/08/04 09:58:21;;;;;;;7.45;6.20;;;;;;;;;;4859383;29;20045;-78
2022/08/04 10:00:50;;;;;;;6.60;6.15;;;;;;;;;;4858961;29;20114;-78
2022/08/04 10:03:16;;;;;;;7.07;6.40;;;;;;;;;;4858224;29;20430;-77
2022/08/04 10:06:00;;;;;;;7.68;6.38;;;;;;;;;;4859134;29;20037;-78
2022/08/04 10:08:36;;;;;;;6.90;6.07;;;;;;;;;;4859521;29;20049;-77
2022/08/04 10:11:01;;;;;;;10.73;6.22;;;;;;;;;;4858801;29;20101;-78
2022/08/04 10:13:28;;;;;;;8.60;6.93;;;;;;;;;;4859364;29;20052;-78
2022/08/04 10:16:05;;;;;;;7.47;6.88;;;;;;;;;;4857558;29;20072;-79
2022/08/04 10:18:39;;;;;;;7.68;6.85;;;;;;;;;;4842825;29;20539;-76
2022/08/04 10:21:30;;;;;;;8.10;6.72;;;;;;;;;;4842447;29;20045;-79
2022/08/04 10:24:00;;;;;;;7.10;6.57;;;;;;;;;;4857521;29;20054;-78
2022/08/04 10:26:45;;;;;;;8.70;7.10;;;;;;;;;;4857712;29;20132;-78
2022/08/04 10:29:16;;;;;;;6.82;6.32;;;;;;;;;;4858825;29;20046;-77
2022/08/04 10:31:44;;;;;;;10.65;6.45;;;;;;;;;;4857352;29;20058;-81
2022/08/04 10:34:13;;;;;;;5.82;5.43;;;;;;;;;;4858787;29;20049;-80
2022/08/04 10:36:51;;;;;;;7.30;6.70;;;;;;;;;;4857490;29;20136;-81
2022/08/04 10:39:17;;;;;;;6.65;6.15;;;;;;;;;;4857637;29;20049;-80
2022/08/04 10:41:54;;;;;;;7.10;6.50;;;;;;;;;;4857223;29;20046;-80
2022/08/04 10:44:39;;;;;;;7.28;6.25;;;;;;;;;;4858755;29;20501;-80
2022/08/04 10:47:31;;;;;;;6.43;5.90;;;;;;;;;;4858628;29;20049;-80
2022/08/04 10:49:58;;;;;;;6.00;5.50;;;;;;;;;;4857992;29;20143;-81
2022/08/04 10:52:24;;;;;;;7.30;6.70;;;;;;;;;;4857165;29;20056;-79
2022/08/04 10:54:51;;;;;;;7.93;5.65;;;;;;;;;;4858202;29;20125;-80
2022/08/04 10:57:53;;;;;;;7.10;6.40;;;;;;;;;;4856739;29;20506;-79
2022/08/04 11:00:25;;;;;;;8.45;6.88;;;;;;;;;;4855832;29;20054;-81
2022/08/04 11:02:51;;;;;;;6.78;6.28;;;;;;;;;;4841354;29;20648;-81
2022/08/04 11:05:20;;;;;;;7.07;6.47;;;;;;;;;;4858535;29;20044;-80
2022/08/04 11:07:50;;;;;;;6.55;6.07;;;;;;;;;;4857968;29;20539;-80
2022/08/04 11:10:16;;;;;;;6.93;6.07;;;;;;;;;;4858079;29;20136;-79
2022/08/04 11:12:42;;;;;;;6.28;5.68;;;;;;;;;;4858165;29;20045;-80
2022/08/04 11:15:10;;;;;;;7.43;5.82;;;;;;;;;;4857020;29;20098;-81
2022/08/04 11:18:06;;;;;;;7.75;6.90;;;;;;;;;;4857059;29;20144;-79
2022/08/04 11:20:34;;;;;;;8.25;6.18;;;;;;;;;;4857786;29;20037;-80
2022/08/04 11:23:10;;;;;;;7.40;6.37;;;;;;;;;;4857464;29;20057;-80
2022/08/04 11:25:41;;;;;;;13.18;6.60;;;;;;;;;;4858162;29;20057;-78
2022/08/04 11:28:39;;;;;;;14.73;6.70;;;;;;;;;;4856516;29;20034;-79
2022/08/04 11:31:21;;;;;;;9.68;7.07;;;;;;;;;;4855964;29;20072;-81
2022/08/04 11:33:59;;;;;;;8.25;6.50;;;;;;;;;;4856823;29;20094;-80
2022/08/04 11:37:01;;;;;;;7.13;6.53;;;;;;;;;;4864682;29;20054;-80
2022/08/04 11:39:37;;;;;;;10.55;6.95;;;;;;;;;;4858310;29;20041;-80
2022/08/04 11:42:19;;;;;;;8.10;6.63;;;;;;;;;;4856430;29;20049;-81
2022/08/04 11:44:58;;;;;;;7.93;7.15;;;;;;;;;;4856580;29;20041;-81
2022/08/04 11:47:31;;;;;;;7.40;6.75;;;;;;;;;;4856494;29;20514;-81
2022/08/04 11:50:03;;;;;;;10.00;6.95;;;;;;;;;;4857577;29;20076;-82
2022/08/04 11:52:29;;;;;;;8.23;7.32;;;;;;;;;;4841441;29;20061;-81
2022/08/04 11:54:55;;;;;;;7.30;6.60;;;;;;;;;;4856329;29;20045;-82
2022/08/04 11:57:22;;;;;;;8.10;7.40;;;;;;;;;;4858060;29;20053;-82
2022/08/04 11:59:48;;;;;;;8.20;7.53;;;;;;;;;;4856474;29;20253;-81
2022/08/04 12:02:14;;;;;;;9.43;7.32;;;;;;;;;;4841148;29;20050;-82
2022/08/04 12:04:49;;;;;;;9.40;7.35;;;;;;;;;;4857600;29;20045;-81
2022/08/04 12:07:30;;;;;;;7.68;7.10;;;;;;;;;;4856378;29;20046;-81
2022/08/04 12:10:05;;;;;;;7.93;7.22;;;;;;;;;;4856703;29;20072;-81
2022/08/04 12:12:33;;;;;;;6.97;6.38;;;;;;;;;;4857428;29;20097;-81
2022/08/04 12:15:19;;;;;;;7.72;6.82;;;;;;;;;;4856009;29;20041;-80
2022/08/04 12:17:48;;;;;;;14.80;7.38;;;;;;;;;;4856126;29;20061;-81
2022/08/04 12:20:20;;;;;;;7.93;7.20;;;;;;;;;;4841265;29;20037;-80
2022/08/04 12:22:48;;;;;;;8.52;7.38;;;;;;;;;;4857020;29;20318;-80
2022/08/04 12:25:23;;;;;;;7.78;6.97;;;;;;;;;;4856782;29;20475;-81
2022/08/04 12:28:00;;;;;;;8.05;7.25;;;;;;;;;;4856257;29;20590;-78
2022/08/04 12:30:26;;;;;;;8.27;7.43;;;;;;;;;;4856357;29;20045;-81
2022/08/04 12:33:00;;;;;;;6.93;6.32;;;;;;;;;;4856284;29;20435;-79
2022/08/04 12:35:26;;;;;;;9.77;6.53;;;;;;;;;;4856735;29;20046;-79
2022/08/04 12:38:13;;;;;;;7.65;6.90;;;;;;;;;;4840651;29;20046;-80
2022/08/04 12:40:46;;;;;;;7.78;6.75;;;;;;;;;;4857508;29;20049;-79
2022/08/04 12:43:13;;;;;;;10.57;6.97;;;;;;;;;;4841232;29;20492;-80
2022/08/04 12:45:41;;;;;;;9.05;7.15;;;;;;;;;;4859900;29;20098;-79
2022/08/04 12:48:08;;;;;;;8.88;7.90;;;;;;;;;;4870645;29;20050;-79
2022/08/04 12:50:35;;;;;;;8.70;7.90;;;;;;;;;;4870781;29;20112;-81
2022/08/04 12:53:01;;;;;;;9.70;8.18;;;;;;;;;;4862416;29;20594;-80
2022/08/04 12:55:27;;;;;;;9.48;7.82;;;;;;;;;;4856730;29;20038;-80
2022/08/04 12:57:53;;;;;;;12.23;7.28;;;;;;;;;;4857303;29;20509;-79
2022/08/04 13:00:27;;;;;;;8.05;7.35;;;;;;;;;;4857183;29;20046;-79
2022/08/04 13:02:53;;;;;;;9.05;8.27;;;;;;;;;;4856727;29;20057;-79
2022/08/04 13:05:18;;;;;;;17.27;8.50;;;;;;;;;;4857082;29;20105;-79
2022/08/04 13:07:49;;;;;;;13.27;8.70;;;;;;;;;;4858287;29;20053;-81
2022/08/04 13:10:15;;;;;;;9.93;7.93;;;;;;;;;;4856816;29;20106;-80
2022/08/04 13:12:44;;;;;;;9.65;8.15;;;;;;;;;;4856890;29;20061;-80
2022/08/04 13:15:12;;;;;;;9.23;8.43;;;;;;;;;;4856836;29;20077;-80
2022/08/04 13:17:41;;;;;;;10.90;8.35;;;;;;;;;;4856881;29;20582;-79
2022/08/04 13:20:07;;;;;;;9.40;8.48;;;;;;;;;;4840414;29;20049;-80
2022/08/04 13:22:33;;;;;;;9.80;8.60;;;;;;;;;;4858272;29;20053;-80
2022/08/04 13:24:59;;;;;;;10.45;8.52;;;;;;;;;;4858921;29;20079;-82
2022/08/04 13:27:25;;;;;;;9.18;8.40;;;;;;;;;;4865588;29;20094;-79
2022/08/04 13:29:51;;;;;;;8.98;8.05;;;;;;;;;;4867320;29;20049;-81
2022/08/04 13:32:19;;;;;;;10.35;8.38;;;;;;;;;;4859260;29;20053;-82
2022/08/04 13:34:45;;;;;;;9.82;8.60;;;;;;;;;;4859230;29;20098;-80
2022/08/04 13:37:11;;;;;;;8.10;7.40;;;;;;;;;;4859811;29;20054;-81
2022/08/04 13:39:38;;;;;;;9.13;8.35;;;;;;;;;;4859199;29;20424;-80
2022/08/04 13:42:07;;;;;;;9.95;8.45;;;;;;;;;;4858733;29;20447;-79
2022/08/04 13:44:34;;;;;;;9.48;8.55;;;;;;;;;;4859055;29;20053;-81
2022/08/04 13:47:04;;;;;;;8.48;7.38;;;;;;;;;;4861475;29;20054;-81
2022/08/04 13:49:30;;;;;;;9.20;8.40;;;;;;;;;;4862281;29;20519;-81
2022/08/04 13:51:59;;;;;;;11.13;8.45;;;;;;;;;;4861723;29;20083;-79
2022/08/04 13:54:26;;;;;;;9.18;8.00;;;;;;;;;;4859840;29;20507;-79
2022/08/04 13:56:54;;;;;;;9.85;8.82;;;;;;;;;;4858233;29;20141;-81
2022/08/04 13:59:21;;;;;;;8.25;7.65;;;;;;;;;;4858750;29;20074;-80
2022/08/04 14:01:55;;;;;;;9.35;8.55;;;;;;;;;;4859781;29;20053;-80
2022/08/04 14:04:21;;;;;;;13.75;8.68;;;;;;;;;;4859773;29;20578;-80
2022/08/04 14:06:47;;;;;;;9.27;8.40;;;;;;;;;;4859485;29;20162;-80
2022/08/04 14:09:14;;;;;;;10.38;7.90;;;;;;;;;;4859344;29;20523;-79
2022/08/04 14:11:41;;;;;;;19.05;8.75;;;;;;;;;;4858204;29;20065;-79
2022/08/04 14:14:33;;;;;;;9.60;8.90;;;;;;;;;;4859277;29;20075;-81
2022/08/04 14:16:59;;;;;;;8.82;8.18;;;;;;;;;;4858759;29;20088;-80
2022/08/04 14:19:29;;;;;;;9.02;8.13;;;;;;;;;;4859156;29;20044;-80
2022/08/04 14:21:55;;;;;;;9.25;8.43;;;;;;;;;;4858618;29;20058;-81
2022/08/04 14:24:22;;;;;;;9.73;8.23;;;;;;;;;;4857976;29;20064;-80
2022/08/04 14:26:47;;;;;;;9.55;8.50;;;;;;;;;;4859143;29;20113;-80
2022/08/04 14:29:14;;;;;;;10.27;9.23;;;;;;;;;;4858826;29;20571;-80
2022/08/04 14:31:40;;;;;;;9.63;8.75;;;;;;;;;;4857517;29;20053;-80
2022/08/04 14:34:06;;;;;;;10.88;8.77;;;;;;;;;;4857722;29;20049;-81
2022/08/04 14:36:39;;;;;;;11.75;8.70;;;;;;;;;;4859912;29;20120;-82
2022/08/04 14:39:06;;;;;;;11.93;8.73;;;;;;;;;;4858640;29;20053;-80
2022/08/04 14:41:45;;;;;;;9.50;8.80;;;;;;;;;;4842245;29;20060;-81
2022/08/04 14:44:11;;;;;;;13.10;8.25;;;;;;;;;;4857458;29;20085;-80
2022/08/04 14:46:50;;;;;;;10.00;8.60;;;;;;;;;;4857436;29;20053;-79
2022/08/04 14:49:17;;;;;;;10.07;9.05;;;;;;;;;;4858579;29;20053;-79
2022/08/04 14:51:53;;;;;;;9.82;9.02;;;;;;;;;;4842278;29;20061;-82
2022/08/04 14:54:27;;;;;;;12.23;8.60;;;;;;;;;;4858659;29;20049;-80
2022/08/04 14:56:54;;;;;;;10.63;8.25;;;;;;;;;;4841938;29;20075;-81
2022/08/04 14:59:20;;;;;;;9.82;8.88;;;;;;;;;;4858607;29;20057;-81
2022/08/04 15:01:46;;;;;;;12.00;9.00;;;;;;;;;;4857450;29;20124;-81
2022/08/04 15:04:12;;;;;;;9.18;8.52;;;;;;;;;;4857121;29;20054;-81
2022/08/04 15:06:38;;;;;;;9.43;8.48;;;;;;;;;;4857150;29;20037;-80
2022/08/04 15:09:05;;;;;;;9.25;8.55;;;;;;;;;;4858470;29;20042;-80
2022/08/04 15:11:32;;;;;;;9.82;8.93;;;;;;;;;;4857606;29;20153;-80
2022/08/04 15:13:58;;;;;;;9.82;8.93;;;;;;;;;;4858427;29;20045;-80
2022/08/04 15:16:25;;;;;;;9.88;8.98;;;;;;;;;;4859441;29;20053;-81
2022/08/04 15:18:51;;;;;;;10.90;9.90;;;;;;;;;;4850204;29;20053;-81
2022/08/04 15:21:17;;;;;;;15.68;9.80;;;;;;;;;;4861549;29;20069;-79
2022/08/04 15:23:43;;;;;;;17.30;9.70;;;;;;;;;;4859113;29;20061;-81
2022/08/04 15:26:11;;;;;;;12.93;9.60;;;;;;;;;;4858362;29;20136;-80